sensor_id;sensor_type;location;lat;lon;timestamp;P1;durP1;ratioP1;P2;durP2;ratioP2
21014;SDS011;19207;-23.482;-46.500;2023-04-03T00:00:20;18.02;;;4.78;;
21014;SDS011;19207;-23.482;-46.500;2023-04-03T00:03:08;18.95;;;4.97;;
21014;SDS011;19207;-23.482;-46.500;2023-04-03T00:05:54;19.70;;;5.10;;
21014;SDS011;19207;-23.482;-46.500;2023-04-03T00:08:41;19.73;;;4.90;;
21014;SDS011;19207;-23.482;-46.500;2023-04-03T00:11:28;23.42;;;5.15;;
21014;SDS011;19207;-23.482;-46.500;2023-04-03T00:14:15;28.33;;;6.03;;
21014;SDS011;19207;-23.482;-46.500;2023-04-03T00:17:02;26.15;;;5.05;;
21014;SDS011;19207;-23.482;-46.500;2023-04-03T00:19:49;16.05;;;4.82;;
21014;SDS011;19207;-23.482;-46.500;2023-04-03T00:22:36;21.85;;;4.97;;
21014;SDS011;19207;-23.482;-46.500;2023-04-03T00:25:22;21.60;;;4.87;;
21014;SDS011;19207;-23.482;-46.500;2023-04-03T00:28:09;17.40;;;4.72;;
21014;SDS011;19207;-23.482;-46.500;2023-04-03T00:30:58;19.05;;;5.37;;
21014;SDS011;19207;-23.482;-46.500;2023-04-03T00:33:45;37.55;;;5.78;;
21014;SDS011;19207;-23.482;-46.500;2023-04-03T00:36:31;25.83;;;5.22;;
21014;SDS011;19207;-23.482;-46.500;2023-04-03T00:39:18;23.00;;;6.00;;
21014;SDS011;19207;-23.482;-46.500;2023-04-03T00:42:05;32.45;;;6.75;;
21014;SDS011;19207;-23.482;-46.500;2023-04-03T00:47:42;34.13;;;6.43;;
21014;SDS011;19207;-23.482;-46.500;2023-04-03T00:50:30;15.23;;;5.20;;
21014;SDS011;19207;-23.482;-46.500;2023-04-03T00:53:18;15.55;;;4.95;;
21014;SDS011;19207;-23.482;-46.500;2023-04-03T00:56:05;25.15;;;7.07;;
21014;SDS011;19207;-23.482;-46.500;2023-04-03T00:58:59;17.08;;;5.50;;
21014;SDS011;19207;-23.482;-46.500;2023-04-03T01:01:46;15.98;;;4.80;;
21014;SDS011;19207;-23.482;-46.500;2023-04-03T01:04:34;18.50;;;4.75;;
21014;SDS011;19207;-23.482;-46.500;2023-04-03T01:07:29;22.98;;;5.68;;
21014;SDS011;19207;-23.482;-46.500;2023-04-03T01:10:16;25.10;;;5.03;;
21014;SDS011;19207;-23.482;-46.500;2023-04-03T01:13:17;22.10;;;5.30;;
21014;SDS011;19207;-23.482;-46.500;2023-04-03T01:16:04;17.58;;;5.18;;
21014;SDS011;19207;-23.482;-46.500;2023-04-03T01:18:51;17.17;;;4.90;;
21014;SDS011;19207;-23.482;-46.500;2023-04-03T01:21:43;19.02;;;5.05;;
21014;SDS011;19207;-23.482;-46.500;2023-04-03T01:24:36;23.38;;;5.05;;
21014;SDS011;19207;-23.482;-46.500;2023-04-03T01:27:26;20.55;;;5.43;;
21014;SDS011;19207;-23.482;-46.500;2023-04-03T01:30:13;17.27;;;5.12;;
21014;SDS011;19207;-23.482;-46.500;2023-04-03T01:33:00;23.35;;;5.07;;
21014;SDS011;19207;-23.482;-46.500;2023-04-03T01:35:47;23.55;;;5.78;;
21014;SDS011;19207;-23.482;-46.500;2023-04-03T01:38:34;18.62;;;5.60;;
21014;SDS011;19207;-23.482;-46.500;2023-04-03T01:41:21;26.70;;;5.80;;
21014;SDS011;19207;-23.482;-46.500;2023-04-03T01:44:08;24.65;;;6.07;;
21014;SDS011;19207;-23.482;-46.500;2023-04-03T01:46:55;20.33;;;6.50;;
21014;SDS011;19207;-23.482;-46.500;2023-04-03T01:49:42;22.23;;;7.10;;
21014;SDS011;19207;-23.482;-46.500;2023-04-03T01:52:29;26.52;;;6.62;;
21014;SDS011;19207;-23.482;-46.500;2023-04-03T01:55:16;23.50;;;6.10;;
21014;SDS011;19207;-23.482;-46.500;2023-04-03T01:58:03;30.55;;;7.37;;
21014;SDS011;19207;-23.482;-46.500;2023-04-03T02:00:51;25.62;;;8.65;;
21014;SDS011;19207;-23.482;-46.500;2023-04-03T02:03:38;30.20;;;8.18;;
21014;SDS011;19207;-23.482;-46.500;2023-04-03T02:06:25;33.80;;;9.80;;
21014;SDS011;19207;-23.482;-46.500;2023-04-03T02:09:12;42.42;;;10.93;;
21014;SDS011;19207;-23.482;-46.500;2023-04-03T02:11:59;39.72;;;10.73;;
21014;SDS011;19207;-23.482;-46.500;2023-04-03T02:14:46;50.85;;;13.70;;
21014;SDS011;19207;-23.482;-46.500;2023-04-03T02:17:32;48.17;;;12.27;;
21014;SDS011;19207;-23.482;-46.500;2023-04-03T02:20:19;38.42;;;12.43;;
21014;SDS011;19207;-23.482;-46.500;2023-04-03T02:23:06;46.50;;;11.48;;
21014;SDS011;19207;-23.482;-46.500;2023-04-03T02:25:53;52.60;;;14.25;;
21014;SDS011;19207;-23.482;-46.500;2023-04-03T02:28:40;44.30;;;13.48;;
21014;SDS011;19207;-23.482;-46.500;2023-04-03T02:31:26;46.53;;;12.60;;
21014;SDS011;19207;-23.482;-46.500;2023-04-03T02:34:13;44.85;;;10.15;;
21014;SDS011;19207;-23.482;-46.500;2023-04-03T02:37:00;40.38;;;10.43;;
21014;SDS011;19207;-23.482;-46.500;2023-04-03T02:39:47;41.33;;;9.98;;
21014;SDS011;19207;-23.482;-46.500;2023-04-03T02:42:34;40.05;;;8.98;;
21014;SDS011;19207;-23.482;-46.500;2023-04-03T02:45:22;36.85;;;9.30;;
21014;SDS011;19207;-23.482;-46.500;2023-04-03T02:48:09;33.03;;;8.15;;
21014;SDS011;19207;-23.482;-46.500;2023-04-03T02:50:55;39.85;;;8.85;;
21014;SDS011;19207;-23.482;-46.500;2023-04-03T02:53:43;32.75;;;7.93;;
21014;SDS011;19207;-23.482;-46.500;2023-04-03T02:56:30;28.92;;;7.55;;
21014;SDS011;19207;-23.482;-46.500;2023-04-03T02:59:16;36.58;;;6.93;;
21014;SDS011;19207;-23.482;-46.500;2023-04-03T03:02:03;25.00;;;6.40;;
21014;SDS011;19207;-23.482;-46.500;2023-04-03T03:04:50;22.92;;;6.95;;
21014;SDS011;19207;-23.482;-46.500;2023-04-03T03:07:37;30.65;;;6.40;;
21014;SDS011;19207;-23.482;-46.500;2023-04-03T03:10:24;23.00;;;8.10;;
21014;SDS011;19207;-23.482;-46.500;2023-04-03T03:13:11;32.25;;;9.00;;
21014;SDS011;19207;-23.482;-46.500;2023-04-03T03:15:58;39.25;;;8.80;;
21014;SDS011;19207;-23.482;-46.500;2023-04-03T03:18:45;24.12;;;9.00;;
21014;SDS011;19207;-23.482;-46.500;2023-04-03T03:21:32;29.52;;;9.77;;
21014;SDS011;19207;-23.482;-46.500;2023-04-03T03:24:19;31.73;;;10.05;;
21014;SDS011;19207;-23.482;-46.500;2023-04-03T03:27:06;32.53;;;8.98;;
21014;SDS011;19207;-23.482;-46.500;2023-04-03T03:29:53;30.80;;;9.20;;
21014;SDS011;19207;-23.482;-46.500;2023-04-03T03:32:40;35.90;;;9.52;;
21014;SDS011;19207;-23.482;-46.500;2023-04-03T03:35:26;55.08;;;17.25;;
21014;SDS011;19207;-23.482;-46.500;2023-04-03T03:38:13;42.20;;;12.02;;
21014;SDS011;19207;-23.482;-46.500;2023-04-03T03:41:01;37.42;;;11.85;;
21014;SDS011;19207;-23.482;-46.500;2023-04-03T03:43:48;52.67;;;14.00;;
21014;SDS011;19207;-23.482;-46.500;2023-04-03T03:46:35;42.47;;;11.57;;
21014;SDS011;19207;-23.482;-46.500;2023-04-03T03:49:22;57.15;;;12.00;;
21014;SDS011;19207;-23.482;-46.500;2023-04-03T03:52:09;44.35;;;11.45;;
21014;SDS011;19207;-23.482;-46.500;2023-04-03T03:54:56;52.83;;;12.02;;
21014;SDS011;19207;-23.482;-46.500;2023-04-03T03:57:43;54.30;;;11.63;;
21014;SDS011;19207;-23.482;-46.500;2023-04-03T04:00:30;45.00;;;11.15;;
21014;SDS011;19207;-23.482;-46.500;2023-04-03T04:03:17;52.33;;;11.52;;
21014;SDS011;19207;-23.482;-46.500;2023-04-03T04:06:03;46.80;;;11.52;;
21014;SDS011;19207;-23.482;-46.500;2023-04-03T04:08:50;49.28;;;12.00;;
21014;SDS011;19207;-23.482;-46.500;2023-04-03T04:11:37;51.58;;;13.30;;
21014;SDS011;19207;-23.482;-46.500;2023-04-03T04:14:25;60.67;;;13.62;;
21014;SDS011;19207;-23.482;-46.500;2023-04-03T04:17:13;47.85;;;13.77;;
21014;SDS011;19207;-23.482;-46.500;2023-04-03T04:19:59;50.70;;;14.35;;
21014;SDS011;19207;-23.482;-46.500;2023-04-03T04:22:46;64.37;;;14.55;;
21014;SDS011;19207;-23.482;-46.500;2023-04-03T04:25:34;57.92;;;14.55;;
21014;SDS011;19207;-23.482;-46.500;2023-04-03T04:28:21;46.88;;;14.00;;
21014;SDS011;19207;-23.482;-46.500;2023-04-03T04:31:07;52.38;;;14.48;;
21014;SDS011;19207;-23.482;-46.500;2023-04-03T04:33:54;51.28;;;14.57;;
21014;SDS011;19207;-23.482;-46.500;2023-04-03T04:36:41;55.10;;;16.15;;
21014;SDS011;19207;-23.482;-46.500;2023-04-03T04:39:28;48.10;;;16.52;;
21014;SDS011;19207;-23.482;-46.500;2023-04-03T04:42:15;54.13;;;18.08;;
21014;SDS011;19207;-23.482;-46.500;2023-04-03T04:45:02;54.45;;;21.33;;
21014;SDS011;19207;-23.482;-46.500;2023-04-03T04:47:49;63.03;;;20.75;;
21014;SDS011;19207;-23.482;-46.500;2023-04-03T04:50:38;54.70;;;19.75;;
21014;SDS011;19207;-23.482;-46.500;2023-04-03T04:53:25;55.38;;;19.25;;
21014;SDS011;19207;-23.482;-46.500;2023-04-03T04:56:12;51.90;;;16.70;;
21014;SDS011;19207;-23.482;-46.500;2023-04-03T04:59:01;49.00;;;16.50;;
21014;SDS011;19207;-23.482;-46.500;2023-04-03T05:01:47;41.60;;;14.35;;
21014;SDS011;19207;-23.482;-46.500;2023-04-03T05:04:34;54.00;;;15.95;;
21014;SDS011;19207;-23.482;-46.500;2023-04-03T05:07:21;38.03;;;15.20;;
21014;SDS011;19207;-23.482;-46.500;2023-04-03T05:10:08;31.90;;;14.02;;
21014;SDS011;19207;-23.482;-46.500;2023-04-03T05:12:55;44.42;;;15.23;;
21014;SDS011;19207;-23.482;-46.500;2023-04-03T05:15:42;49.25;;;13.40;;
21014;SDS011;19207;-23.482;-46.500;2023-04-03T05:18:29;43.97;;;12.48;;
21014;SDS011;19207;-23.482;-46.500;2023-04-03T05:21:16;41.20;;;11.25;;
21014;SDS011;19207;-23.482;-46.500;2023-04-03T05:24:03;43.63;;;11.60;;
21014;SDS011;19207;-23.482;-46.500;2023-04-03T05:26:51;35.65;;;9.73;;
21014;SDS011;19207;-23.482;-46.500;2023-04-03T05:29:37;43.63;;;9.13;;
21014;SDS011;19207;-23.482;-46.500;2023-04-03T05:32:29;36.97;;;8.85;;
21014;SDS011;19207;-23.482;-46.500;2023-04-03T05:35:16;39.53;;;8.98;;
21014;SDS011;19207;-23.482;-46.500;2023-04-03T05:38:03;48.05;;;9.45;;
21014;SDS011;19207;-23.482;-46.500;2023-04-03T05:40:50;45.92;;;10.75;;
21014;SDS011;19207;-23.482;-46.500;2023-04-03T05:43:37;34.28;;;9.93;;
21014;SDS011;19207;-23.482;-46.500;2023-04-03T05:46:24;36.53;;;9.75;;
21014;SDS011;19207;-23.482;-46.500;2023-04-03T05:49:12;35.08;;;9.45;;
21014;SDS011;19207;-23.482;-46.500;2023-04-03T05:51:58;39.35;;;10.63;;
21014;SDS011;19207;-23.482;-46.500;2023-04-03T05:54:45;37.47;;;10.02;;
21014;SDS011;19207;-23.482;-46.500;2023-04-03T05:57:33;59.65;;;18.02;;
21014;SDS011;19207;-23.482;-46.500;2023-04-03T06:00:21;59.72;;;19.50;;
21014;SDS011;19207;-23.482;-46.500;2023-04-03T06:03:08;119.70;;;35.30;;
21014;SDS011;19207;-23.482;-46.500;2023-04-03T06:06:02;70.65;;;29.02;;
21014;SDS011;19207;-23.482;-46.500;2023-04-03T06:08:49;86.05;;;27.73;;
21014;SDS011;19207;-23.482;-46.500;2023-04-03T06:11:37;119.68;;;32.55;;
21014;SDS011;19207;-23.482;-46.500;2023-04-03T06:14:25;106.10;;;33.40;;
21014;SDS011;19207;-23.482;-46.500;2023-04-03T06:17:11;100.40;;;30.33;;
21014;SDS011;19207;-23.482;-46.500;2023-04-03T06:19:58;94.18;;;26.92;;
21014;SDS011;19207;-23.482;-46.500;2023-04-03T06:22:45;100.87;;;24.10;;
21014;SDS011;19207;-23.482;-46.500;2023-04-03T06:25:32;97.10;;;25.65;;
21014;SDS011;19207;-23.482;-46.500;2023-04-03T06:28:19;79.80;;;25.80;;
21014;SDS011;19207;-23.482;-46.500;2023-04-03T06:31:06;108.32;;;28.45;;
21014;SDS011;19207;-23.482;-46.500;2023-04-03T06:33:53;93.12;;;32.80;;
21014;SDS011;19207;-23.482;-46.500;2023-04-03T06:36:41;96.43;;;32.08;;
21014;SDS011;19207;-23.482;-46.500;2023-04-03T06:39:28;100.05;;;33.17;;
21014;SDS011;19207;-23.482;-46.500;2023-04-03T06:42:15;98.10;;;31.65;;
21014;SDS011;19207;-23.482;-46.500;2023-04-03T06:45:03;93.47;;;32.88;;
21014;SDS011;19207;-23.482;-46.500;2023-04-03T06:47:50;77.95;;;29.73;;
21014;SDS011;19207;-23.482;-46.500;2023-04-03T06:50:38;83.15;;;26.05;;
21014;SDS011;19207;-23.482;-46.500;2023-04-03T06:53:25;65.68;;;21.40;;
21014;SDS011;19207;-23.482;-46.500;2023-04-03T06:56:12;81.80;;;18.50;;
21014;SDS011;19207;-23.482;-46.500;2023-04-03T06:58:59;69.80;;;19.58;;
21014;SDS011;19207;-23.482;-46.500;2023-04-03T07:01:47;75.97;;;19.08;;
21014;SDS011;19207;-23.482;-46.500;2023-04-03T07:04:34;61.85;;;18.52;;
21014;SDS011;19207;-23.482;-46.500;2023-04-03T07:07:21;59.00;;;16.45;;
21014;SDS011;19207;-23.482;-46.500;2023-04-03T07:10:08;78.28;;;21.17;;
21014;SDS011;19207;-23.482;-46.500;2023-04-03T07:12:56;65.90;;;22.80;;
21014;SDS011;19207;-23.482;-46.500;2023-04-03T07:15:43;69.93;;;24.50;;
21014;SDS011;19207;-23.482;-46.500;2023-04-03T07:18:29;74.05;;;26.50;;
21014;SDS011;19207;-23.482;-46.500;2023-04-03T07:21:16;51.08;;;17.08;;
21014;SDS011;19207;-23.482;-46.500;2023-04-03T07:24:02;58.85;;;17.00;;
21014;SDS011;19207;-23.482;-46.500;2023-04-03T07:26:50;53.22;;;13.90;;
21014;SDS011;19207;-23.482;-46.500;2023-04-03T07:29:38;71.12;;;27.08;;
21014;SDS011;19207;-23.482;-46.500;2023-04-03T07:32:25;48.65;;;15.75;;
21014;SDS011;19207;-23.482;-46.500;2023-04-03T07:35:12;46.58;;;13.85;;
21014;SDS011;19207;-23.482;-46.500;2023-04-03T07:37:59;57.20;;;14.00;;
21014;SDS011;19207;-23.482;-46.500;2023-04-03T07:40:46;45.50;;;15.82;;
21014;SDS011;19207;-23.482;-46.500;2023-04-03T07:43:33;52.72;;;17.25;;
21014;SDS011;19207;-23.482;-46.500;2023-04-03T07:46:19;61.60;;;19.75;;
21014;SDS011;19207;-23.482;-46.500;2023-04-03T07:49:06;51.80;;;18.83;;
21014;SDS011;19207;-23.482;-46.500;2023-04-03T07:51:55;56.97;;;18.73;;
21014;SDS011;19207;-23.482;-46.500;2023-04-03T07:54:42;64.47;;;19.70;;
21014;SDS011;19207;-23.482;-46.500;2023-04-03T07:57:29;59.25;;;17.52;;
21014;SDS011;19207;-23.482;-46.500;2023-04-03T08:00:16;52.15;;;17.85;;
21014;SDS011;19207;-23.482;-46.500;2023-04-03T08:03:04;56.15;;;17.55;;
21014;SDS011;19207;-23.482;-46.500;2023-04-03T08:05:51;57.03;;;17.95;;
21014;SDS011;19207;-23.482;-46.500;2023-04-03T08:08:38;50.90;;;17.27;;
21014;SDS011;19207;-23.482;-46.500;2023-04-03T08:11:25;47.95;;;17.48;;
21014;SDS011;19207;-23.482;-46.500;2023-04-03T08:14:13;62.88;;;17.90;;
21014;SDS011;19207;-23.482;-46.500;2023-04-03T08:17:04;63.92;;;18.10;;
21014;SDS011;19207;-23.482;-46.500;2023-04-03T08:19:51;65.40;;;19.42;;
21014;SDS011;19207;-23.482;-46.500;2023-04-03T08:22:38;66.68;;;19.05;;
21014;SDS011;19207;-23.482;-46.500;2023-04-03T08:25:24;65.43;;;22.30;;
21014;SDS011;19207;-23.482;-46.500;2023-04-03T08:28:11;66.87;;;22.58;;
21014;SDS011;19207;-23.482;-46.500;2023-04-03T08:31:02;61.17;;;21.23;;
21014;SDS011;19207;-23.482;-46.500;2023-04-03T08:33:51;53.70;;;20.65;;
21014;SDS011;19207;-23.482;-46.500;2023-04-03T08:36:37;64.15;;;21.48;;
21014;SDS011;19207;-23.482;-46.500;2023-04-03T08:39:24;57.80;;;20.85;;
21014;SDS011;19207;-23.482;-46.500;2023-04-03T08:42:16;59.30;;;20.27;;
21014;SDS011;19207;-23.482;-46.500;2023-04-03T08:48:06;63.13;;;20.65;;
21014;SDS011;19207;-23.482;-46.500;2023-04-03T08:50:59;59.45;;;20.95;;
21014;SDS011;19207;-23.482;-46.500;2023-04-03T08:53:56;47.95;;;20.90;;
21014;SDS011;19207;-23.482;-46.500;2023-04-03T08:56:43;69.00;;;23.25;;
21014;SDS011;19207;-23.482;-46.500;2023-04-03T08:59:32;64.28;;;23.20;;
21014;SDS011;19207;-23.482;-46.500;2023-04-03T09:05:15;54.38;;;21.50;;
21014;SDS011;19207;-23.482;-46.500;2023-04-03T09:08:12;52.55;;;21.98;;
21014;SDS011;19207;-23.482;-46.500;2023-04-03T09:29:10;56.92;;;20.70;;
21014;SDS011;19207;-23.482;-46.500;2023-04-03T09:32:01;63.30;;;21.27;;
21014;SDS011;19207;-23.482;-46.500;2023-04-03T09:34:48;53.63;;;22.25;;
21014;SDS011;19207;-23.482;-46.500;2023-04-03T09:37:42;62.65;;;22.87;;
21014;SDS011;19207;-23.482;-46.500;2023-04-03T09:40:31;65.00;;;24.17;;
21014;SDS011;19207;-23.482;-46.500;2023-04-03T09:43:21;78.35;;;27.37;;
21014;SDS011;19207;-23.482;-46.500;2023-04-03T09:46:22;87.72;;;26.50;;
21014;SDS011;19207;-23.482;-46.500;2023-04-03T09:49:10;65.82;;;23.62;;
21014;SDS011;19207;-23.482;-46.500;2023-04-03T09:51:57;65.90;;;20.60;;
21014;SDS011;19207;-23.482;-46.500;2023-04-03T09:54:47;68.68;;;21.52;;
21014;SDS011;19207;-23.482;-46.500;2023-04-03T09:57:34;59.45;;;20.25;;
21014;SDS011;19207;-23.482;-46.500;2023-04-03T10:00:39;52.95;;;20.23;;
21014;SDS011;19207;-23.482;-46.500;2023-04-03T10:06:24;69.70;;;22.48;;
21014;SDS011;19207;-23.482;-46.500;2023-04-03T10:09:21;57.47;;;22.70;;
21014;SDS011;19207;-23.482;-46.500;2023-04-03T10:12:09;65.93;;;22.27;;
21014;SDS011;19207;-23.482;-46.500;2023-04-03T10:15:01;60.63;;;22.80;;
21014;SDS011;19207;-23.482;-46.500;2023-04-03T10:17:50;59.88;;;20.23;;
21014;SDS011;19207;-23.482;-46.500;2023-04-03T10:20:44;47.65;;;17.77;;
21014;SDS011;19207;-23.482;-46.500;2023-04-03T10:23:39;43.97;;;17.27;;
21014;SDS011;19207;-23.482;-46.500;2023-04-03T10:29:34;44.58;;;14.68;;
21014;SDS011;19207;-23.482;-46.500;2023-04-03T10:47:11;35.60;;;12.18;;
21014;SDS011;19207;-23.482;-46.500;2023-04-03T10:55:43;31.08;;;11.00;;
21014;SDS011;19207;-23.482;-46.500;2023-04-03T10:58:38;30.88;;;10.23;;
21014;SDS011;19207;-23.482;-46.500;2023-04-03T11:01:35;36.08;;;9.88;;
21014;SDS011;19207;-23.482;-46.500;2023-04-03T11:04:23;32.15;;;8.98;;
21014;SDS011;19207;-23.482;-46.500;2023-04-03T11:07:18;37.83;;;8.95;;
21014;SDS011;19207;-23.482;-46.500;2023-04-03T11:13:25;24.23;;;8.68;;
21014;SDS011;19207;-23.482;-46.500;2023-04-03T11:16:14;31.25;;;9.32;;
21014;SDS011;19207;-23.482;-46.500;2023-04-03T11:19:04;33.33;;;8.10;;
21014;SDS011;19207;-23.482;-46.500;2023-04-03T11:22:00;29.20;;;7.78;;
21014;SDS011;19207;-23.482;-46.500;2023-04-03T11:25:03;24.23;;;7.85;;
21014;SDS011;19207;-23.482;-46.500;2023-04-03T11:33:47;42.40;;;15.07;;
21014;SDS011;19207;-23.482;-46.500;2023-04-03T11:39:26;29.90;;;10.27;;
21014;SDS011;19207;-23.482;-46.500;2023-04-03T11:42:28;32.42;;;11.27;;
21014;SDS011;19207;-23.482;-46.500;2023-04-03T11:51:37;22.90;;;6.53;;
21014;SDS011;19207;-23.482;-46.500;2023-04-03T11:54:43;33.30;;;9.88;;
21014;SDS011;19207;-23.482;-46.500;2023-04-03T11:57:44;32.08;;;7.20;;
21014;SDS011;19207;-23.482;-46.500;2023-04-03T12:12:29;26.87;;;7.40;;
21014;SDS011;19207;-23.482;-46.500;2023-04-03T12:15:25;24.60;;;7.10;;
21014;SDS011;19207;-23.482;-46.500;2023-04-03T12:21:22;22.77;;;6.82;;
21014;SDS011;19207;-23.482;-46.500;2023-04-03T12:44:36;29.63;;;6.32;;
21014;SDS011;19207;-23.482;-46.500;2023-04-03T12:47:29;22.40;;;6.37;;
21014;SDS011;19207;-23.482;-46.500;2023-04-03T12:50:28;16.98;;;5.53;;
21014;SDS011;19207;-23.482;-46.500;2023-04-03T12:53:18;20.55;;;5.55;;
21014;SDS011;19207;-23.482;-46.500;2023-04-03T12:56:23;18.62;;;5.55;;
21014;SDS011;19207;-23.482;-46.500;2023-04-03T12:59:22;15.95;;;5.70;;
21014;SDS011;19207;-23.482;-46.500;2023-04-03T13:02:22;19.27;;;5.93;;
21014;SDS011;19207;-23.482;-46.500;2023-04-03T13:05:09;13.73;;;5.60;;
21014;SDS011;19207;-23.482;-46.500;2023-04-03T13:08:12;16.87;;;6.05;;
21014;SDS011;19207;-23.482;-46.500;2023-04-03T13:11:02;23.33;;;6.03;;
21014;SDS011;19207;-23.482;-46.500;2023-04-03T13:14:12;25.80;;;6.12;;
21014;SDS011;19207;-23.482;-46.500;2023-04-03T13:17:09;20.15;;;6.15;;
21014;SDS011;19207;-23.482;-46.500;2023-04-03T13:20:12;17.70;;;5.90;;
21014;SDS011;19207;-23.482;-46.500;2023-04-03T13:23:08;19.95;;;6.45;;
21014;SDS011;19207;-23.482;-46.500;2023-04-03T13:25:57;19.62;;;6.25;;
21014;SDS011;19207;-23.482;-46.500;2023-04-03T13:28:48;24.10;;;6.85;;
21014;SDS011;19207;-23.482;-46.500;2023-04-03T13:31:36;24.30;;;7.90;;
21014;SDS011;19207;-23.482;-46.500;2023-04-03T13:34:24;25.15;;;6.00;;
21014;SDS011;19207;-23.482;-46.500;2023-04-03T13:37:20;23.65;;;6.12;;
21014;SDS011;19207;-23.482;-46.500;2023-04-03T13:43:01;14.95;;;5.93;;
21014;SDS011;19207;-23.482;-46.500;2023-04-03T13:48:54;18.65;;;6.80;;
21014;SDS011;19207;-23.482;-46.500;2023-04-03T13:51:42;24.77;;;10.50;;
21014;SDS011;19207;-23.482;-46.500;2023-04-03T13:54:30;13.07;;;6.55;;
21014;SDS011;19207;-23.482;-46.500;2023-04-03T13:57:17;16.85;;;6.90;;
21014;SDS011;19207;-23.482;-46.500;2023-04-03T14:03:13;17.40;;;6.80;;
21014;SDS011;19207;-23.482;-46.500;2023-04-03T14:06:00;15.38;;;6.18;;
21014;SDS011;19207;-23.482;-46.500;2023-04-03T14:08:49;23.85;;;6.93;;
21014;SDS011;19207;-23.482;-46.500;2023-04-03T14:11:36;21.50;;;6.85;;
21014;SDS011;19207;-23.482;-46.500;2023-04-03T14:14:24;24.40;;;6.85;;
21014;SDS011;19207;-23.482;-46.500;2023-04-03T14:17:17;19.15;;;7.75;;
21014;SDS011;19207;-23.482;-46.500;2023-04-03T14:20:03;20.30;;;7.15;;
21014;SDS011;19207;-23.482;-46.500;2023-04-03T14:22:51;20.58;;;7.35;;
21014;SDS011;19207;-23.482;-46.500;2023-04-03T14:25:39;20.67;;;7.15;;
21014;SDS011;19207;-23.482;-46.500;2023-04-03T14:28:25;28.70;;;7.47;;
21014;SDS011;19207;-23.482;-46.500;2023-04-03T14:31:13;20.62;;;7.72;;
21014;SDS011;19207;-23.482;-46.500;2023-04-03T14:34:00;17.80;;;8.05;;
21014;SDS011;19207;-23.482;-46.500;2023-04-03T14:36:48;23.42;;;8.20;;
21014;SDS011;19207;-23.482;-46.500;2023-04-03T14:39:35;24.77;;;8.00;;
21014;SDS011;19207;-23.482;-46.500;2023-04-03T14:42:26;22.77;;;8.00;;
21014;SDS011;19207;-23.482;-46.500;2023-04-03T14:45:13;21.65;;;8.00;;
21014;SDS011;19207;-23.482;-46.500;2023-04-03T14:48:00;18.87;;;8.27;;
21014;SDS011;19207;-23.482;-46.500;2023-04-03T14:50:48;19.77;;;7.20;;
21014;SDS011;19207;-23.482;-46.500;2023-04-03T14:53:35;16.75;;;8.52;;
21014;SDS011;19207;-23.482;-46.500;2023-04-03T14:56:26;19.37;;;8.90;;
21014;SDS011;19207;-23.482;-46.500;2023-04-03T14:59:13;23.40;;;8.82;;
21014;SDS011;19207;-23.482;-46.500;2023-04-03T15:02:02;19.77;;;8.43;;
21014;SDS011;19207;-23.482;-46.500;2023-04-03T15:04:52;18.75;;;8.70;;
21014;SDS011;19207;-23.482;-46.500;2023-04-03T15:07:57;17.87;;;7.70;;
21014;SDS011;19207;-23.482;-46.500;2023-04-03T15:10:45;20.15;;;7.80;;
21014;SDS011;19207;-23.482;-46.500;2023-04-03T15:13:32;18.75;;;7.87;;
21014;SDS011;19207;-23.482;-46.500;2023-04-03T15:16:21;17.83;;;7.95;;
21014;SDS011;19207;-23.482;-46.500;2023-04-03T15:19:09;16.35;;;7.40;;
21014;SDS011;19207;-23.482;-46.500;2023-04-03T15:21:56;21.10;;;7.53;;
21014;SDS011;19207;-23.482;-46.500;2023-04-03T15:24:43;15.50;;;7.15;;
21014;SDS011;19207;-23.482;-46.500;2023-04-03T15:27:30;21.37;;;7.72;;
21014;SDS011;19207;-23.482;-46.500;2023-04-03T15:30:18;12.30;;;7.12;;
21014;SDS011;19207;-23.482;-46.500;2023-04-03T15:33:06;18.02;;;7.30;;
21014;SDS011;19207;-23.482;-46.500;2023-04-03T15:35:52;15.85;;;7.10;;
21014;SDS011;19207;-23.482;-46.500;2023-04-03T15:38:39;26.98;;;7.43;;
21014;SDS011;19207;-23.482;-46.500;2023-04-03T15:41:26;24.52;;;7.65;;
21014;SDS011;19207;-23.482;-46.500;2023-04-03T15:44:12;17.83;;;7.95;;
21014;SDS011;19207;-23.482;-46.500;2023-04-03T15:47:02;16.92;;;7.75;;
21014;SDS011;19207;-23.482;-46.500;2023-04-03T15:49:49;18.27;;;7.00;;
21014;SDS011;19207;-23.482;-46.500;2023-04-03T15:52:36;13.70;;;6.68;;
21014;SDS011;19207;-23.482;-46.500;2023-04-03T15:55:24;15.35;;;6.75;;
21014;SDS011;19207;-23.482;-46.500;2023-04-03T15:58:11;18.80;;;7.15;;
21014;SDS011;19207;-23.482;-46.500;2023-04-03T16:00:58;12.23;;;7.05;;
21014;SDS011;19207;-23.482;-46.500;2023-04-03T16:03:45;11.18;;;7.05;;
21014;SDS011;19207;-23.482;-46.500;2023-04-03T16:06:32;20.70;;;7.10;;
21014;SDS011;19207;-23.482;-46.500;2023-04-03T16:09:19;17.35;;;8.00;;
21014;SDS011;19207;-23.482;-46.500;2023-04-03T16:12:05;18.65;;;7.53;;
21014;SDS011;19207;-23.482;-46.500;2023-04-03T16:14:52;18.52;;;7.62;;
21014;SDS011;19207;-23.482;-46.500;2023-04-03T16:17:39;27.98;;;7.75;;
21014;SDS011;19207;-23.482;-46.500;2023-04-03T16:20:26;20.10;;;7.90;;
21014;SDS011;19207;-23.482;-46.500;2023-04-03T16:23:13;16.23;;;8.00;;
21014;SDS011;19207;-23.482;-46.500;2023-04-03T16:26:00;14.85;;;7.93;;
21014;SDS011;19207;-23.482;-46.500;2023-04-03T16:28:47;15.07;;;7.37;;
21014;SDS011;19207;-23.482;-46.500;2023-04-03T16:31:34;15.52;;;7.82;;
21014;SDS011;19207;-23.482;-46.500;2023-04-03T16:34:21;14.23;;;7.50;;
21014;SDS011;19207;-23.482;-46.500;2023-04-03T16:37:08;16.70;;;7.18;;
21014;SDS011;19207;-23.482;-46.500;2023-04-03T16:39:55;12.00;;;6.62;;
21014;SDS011;19207;-23.482;-46.500;2023-04-03T16:42:43;14.85;;;7.60;;
21014;SDS011;19207;-23.482;-46.500;2023-04-03T16:45:29;16.92;;;6.53;;
21014;SDS011;19207;-23.482;-46.500;2023-04-03T16:48:24;16.00;;;6.90;;
21014;SDS011;19207;-23.482;-46.500;2023-04-03T16:51:12;16.80;;;6.75;;
21014;SDS011;19207;-23.482;-46.500;2023-04-03T16:53:58;21.05;;;7.95;;
21014;SDS011;19207;-23.482;-46.500;2023-04-03T16:56:45;21.92;;;7.60;;
21014;SDS011;19207;-23.482;-46.500;2023-04-03T16:59:32;18.50;;;7.10;;
21014;SDS011;19207;-23.482;-46.500;2023-04-03T17:02:19;18.83;;;7.07;;
21014;SDS011;19207;-23.482;-46.500;2023-04-03T17:05:06;19.80;;;7.47;;
21014;SDS011;19207;-23.482;-46.500;2023-04-03T17:07:53;11.73;;;6.68;;
21014;SDS011;19207;-23.482;-46.500;2023-04-03T17:10:40;21.87;;;6.82;;
21014;SDS011;19207;-23.482;-46.500;2023-04-03T17:13:26;14.95;;;6.40;;
21014;SDS011;19207;-23.482;-46.500;2023-04-03T17:16:17;15.77;;;7.22;;
21014;SDS011;19207;-23.482;-46.500;2023-04-03T17:19:03;14.38;;;6.82;;
21014;SDS011;19207;-23.482;-46.500;2023-04-03T17:21:51;20.35;;;7.80;;
21014;SDS011;19207;-23.482;-46.500;2023-04-03T17:24:37;12.25;;;6.53;;
21014;SDS011;19207;-23.482;-46.500;2023-04-03T17:27:25;13.25;;;6.80;;
21014;SDS011;19207;-23.482;-46.500;2023-04-03T17:30:12;12.68;;;6.87;;
21014;SDS011;19207;-23.482;-46.500;2023-04-03T17:32:59;14.05;;;6.82;;
21014;SDS011;19207;-23.482;-46.500;2023-04-03T17:35:46;20.02;;;7.75;;
21014;SDS011;19207;-23.482;-46.500;2023-04-03T17:38:34;15.02;;;7.25;;
21014;SDS011;19207;-23.482;-46.500;2023-04-03T17:41:21;19.17;;;8.15;;
21014;SDS011;19207;-23.482;-46.500;2023-04-03T17:44:08;13.30;;;7.00;;
21014;SDS011;19207;-23.482;-46.500;2023-04-03T17:46:54;16.62;;;7.47;;